Time;durP1;ratioP1;P1;durP2;ratioP2;P2;SDS_P1;SDS_P2;PMS_P1;PMS_P2;Temp;Humidity;BMP_temperature;BMP_pressure;BME280_temperature;BME280_humidity;BME280_pressure;Samples;Min_cycle;Max_cycle;Signal;HPM_P1;HPM_P2
2023/08/10 00:00:39;;;;;;;5.07;4.20;;;;;21.90;100946.00;;;;2069982;28;20246;-59
2023/08/10 00:01:40;;;;;;;5.05;3.90;;;;;21.90;100942.00;;;;2073107;28;20209;-59
2023/08/10 00:02:40;;;;;;;5.38;4.13;;;;;21.90;100949.00;;;;2082285;28;20283;-58
2023/08/10 00:03:41;;;;;;;6.27;4.57;;;;;21.80;100800.00;;;;2065870;28;20215;-58
2023/08/10 00:04:41;;;;;;;5.40;4.40;;;;;21.90;100934.00;;;;2064617;28;20749;-58
2023/08/10 00:05:41;;;;;;;4.70;3.83;;;;;21.90;100932.00;;;;2062553;28;20211;-60
2023/08/10 00:06:42;;;;;;;5.87;4.30;;;;;21.80;100947.00;;;;2060267;28;20211;-58
2023/08/10 00:07:42;;;;;;;4.83;3.83;;;;;21.90;100946.00;;;;2076228;28;20685;-59
2023/08/10 00:08:42;;;;;;;4.83;4.00;;;;;21.90;100892.00;;;;2073857;28;20752;-58
2023/08/10 00:09:43;;;;;;;5.40;3.83;;;;;21.90;100946.00;;;;2069692;28;20583;-58
2023/08/10 00:10:43;;;;;;;6.17;3.90;;;;;21.90;100937.00;;;;2069406;28;20214;-58
2023/08/10 00:11:43;;;;;;;4.80;3.73;;;;;21.80;100935.00;;;;2063858;28;20269;-58
2023/08/10 00:12:44;;;;;;;4.53;3.90;;;;;21.80;100936.00;;;;2083860;28;20350;-58
2023/08/10 00:13:44;;;;;;;3.93;3.53;;;;;21.90;100935.00;;;;2074278;28;20210;-59
2023/08/10 00:14:44;;;;;;;6.67;3.93;;;;;21.90;100940.00;;;;2073798;28;20214;-59
2023/08/10 00:15:45;;;;;;;5.17;3.83;;;;;21.80;100946.00;;;;2069375;28;20217;-58
2023/08/10 00:16:45;;;;;;;5.40;3.20;;;;;21.80;100936.00;;;;2052573;28;20301;-58
2023/08/10 00:17:45;;;;;;;4.83;3.77;;;;;21.80;100937.00;;;;2052703;28;20750;-58
2023/08/10 00:18:46;;;;;;;5.73;3.87;;;;;21.80;100937.00;;;;2067605;28;20638;-57
2023/08/10 00:19:46;;;;;;;4.43;3.37;;;;;21.80;100941.00;;;;2070286;28;20580;-58
2023/08/10 00:20:46;;;;;;;5.00;3.40;;;;;21.80;100934.00;;;;2075199;28;20715;-59
2023/08/10 00:21:47;;;;;;;3.60;3.30;;;;;21.80;100940.00;;;;2060689;28;20636;-59
2023/08/10 00:22:47;;;;;;;4.90;3.90;;;;;21.80;100942.00;;;;2083001;28;20216;-59
2023/08/10 00:23:48;;;;;;;3.40;3.10;;;;;21.80;100938.00;;;;2069031;28;20221;-58
2023/08/10 00:24:48;;;;;;;5.30;3.73;;;;;21.80;100942.00;;;;2077783;28;20228;-59
2023/08/10 00:25:48;;;;;;;4.33;3.30;;;;;21.80;100948.00;;;;2072270;28;20281;-59
2023/08/10 00:26:49;;;;;;;3.47;3.07;;;;;21.80;100953.00;;;;2060558;28;20210;-59
2023/08/10 00:27:49;;;;;;;4.90;3.00;;;;;21.80;100949.00;;;;2067847;28;20210;-58
2023/08/10 00:28:50;;;;;;;3.50;2.60;;;;;21.80;100951.00;;;;2075523;28;20201;-58
2023/08/10 00:29:51;;;;;;;4.20;3.20;;;;;21.80;100949.00;;;;2073382;28;20219;-59
2023/08/10 00:30:51;;;;;;;4.97;3.17;;;;;21.80;100946.00;;;;2079022;28;20506;-59
2023/08/10 00:31:52;;;;;;;3.53;3.13;;;;;21.80;100948.00;;;;2059784;28;20225;-58
2023/08/10 00:32:52;;;;;;;4.67;3.33;;;;;21.80;100940.00;;;;2078965;28;20214;-58
2023/08/10 00:33:52;;;;;;;3.30;3.00;;;;;21.80;100947.00;;;;2083876;28;20697;-58
2023/08/10 00:34:53;;;;;;;3.43;3.10;;;;;21.80;100948.00;;;;2070433;28;20717;-58
2023/08/10 00:35:53;;;;;;;3.97;3.10;;;;;21.80;100955.00;;;;2074509;28;20623;-58
2023/08/10 00:36:53;;;;;;;3.93;3.20;;;;;21.80;100951.00;;;;2073633;28;20402;-59
2023/08/10 00:37:54;;;;;;;3.23;2.93;;;;;21.80;100947.00;;;;2078826;28;20228;-59
2023/08/10 00:38:55;;;;;;;3.10;2.80;;;;;21.00;100946.00;;;;2078586;28;20221;-59
2023/08/10 00:39:55;;;;;;;3.23;2.87;;;;;21.80;100947.00;;;;2071947;28;20453;-57
2023/08/10 00:40:55;;;;;;;3.33;2.80;;;;;21.80;100942.00;;;;2063037;28;20222;-58
2023/08/10 00:41:57;;;;;;;4.40;3.00;;;;;21.80;100948.00;;;;2066809;28;20244;-58
2023/08/10 00:43:01;;;;;;;4.45;2.70;;;;;21.80;100951.00;;;;2070079;28;20222;-57
2023/08/10 00:44:01;;;;;;;3.20;2.60;;;;;21.80;100954.00;;;;2068413;28;20222;-58
2023/08/10 00:45:01;;;;;;;4.33;2.73;;;;;21.80;100952.00;;;;2071563;28;20233;-58
2023/08/10 00:46:02;;;;;;;3.20;2.80;;;;;21.80;100953.00;;;;2074429;28;20238;-58
2023/08/10 00:47:02;;;;;;;3.50;2.97;;;;;21.80;100948.00;;;;2072248;28;20224;-59
2023/08/10 00:48:02;;;;;;;3.97;2.70;;;;;21.80;100949.00;;;;2071697;28;20230;-58
2023/08/10 00:49:03;;;;;;;3.40;2.90;;;;;21.80;100947.00;;;;2074363;28;20387;-58
2023/08/10 00:50:04;;;;;;;4.10;2.73;;;;;21.80;100947.00;;;;2074991;28;20304;-58
2023/08/10 00:51:04;;;;;;;3.57;3.10;;;;;21.80;100939.00;;;;2059656;28;20325;-59
2023/08/10 00:52:05;;;;;;;4.40;2.93;;;;;21.80;100944.00;;;;2067198;28;20687;-58
2023/08/10 00:53:05;;;;;;;4.33;2.70;;;;;21.80;100947.00;;;;2068546;28;20230;-58
2023/08/10 00:54:05;;;;;;;4.10;3.03;;;;;21.80;100944.00;;;;2065962;28;20230;-58
2023/08/10 00:55:06;;;;;;;3.73;2.37;;;;;21.80;100943.00;;;;2067006;28;20234;-57
2023/08/10 00:56:08;;;;;;;3.30;2.67;;;;;21.80;100939.00;;;;2052546;28;20227;-59
2023/08/10 00:57:08;;;;;;;4.22;2.78;;;;;21.80;100944.00;;;;2061615;28;20222;-58
2023/08/10 00:58:12;;;;;;;4.90;2.93;;;;;21.80;100926.00;;;;2056456;28;20227;-59
2023/08/10 00:59:12;;;;;;;3.28;2.60;;;;;21.80;100946.00;;;;2063473;28;20219;-59
2023/08/10 01:00:13;;;;;;;10.87;2.60;;;;;21.80;100943.00;;;;2073739;28;20229;-59
2023/08/10 01:01:13;;;;;;;2.73;2.53;;;;;21.80;100943.00;;;;2045122;28;20227;-57
2023/08/10 01:02:14;;;;;;;4.43;3.00;;;;;21.80;100944.00;;;;2070767;28;20702;-58
2023/08/10 01:03:15;;;;;;;2.77;2.33;;;;;21.80;100937.00;;;;2065638;28;20218;-57
2023/08/10 01:04:15;;;;;;;3.15;2.25;;;;;21.40;100945.00;;;;2053737;28;20615;-59
2023/08/10 01:05:16;;;;;;;2.63;2.30;;;;;21.80;100945.00;;;;2067589;28;20218;-58
2023/08/10 01:06:22;;;;;;;3.80;2.80;;;;;21.80;100942.00;;;;2065438;28;20217;-59
2023/08/10 01:07:33;;;;;;;3.30;2.90;;;;;21.80;100933.00;;;;2065373;28;20211;-58
2023/08/10 01:08:41;;;;;;;4.22;2.65;;;;;21.80;100917.00;;;;2065410;28;20223;-59
2023/08/10 01:09:49;;;;;;;3.20;2.60;;;;;21.80;100939.00;;;;2067781;28;20230;-59
2023/08/10 01:11:24;;;;;;;2.85;2.20;;;;;21.80;100939.00;;;;2056153;28;20238;-58
2023/08/10 01:12:36;;;;;;;3.55;2.33;;;;;21.70;100942.00;;;;2035721;28;20216;-59
2023/08/10 01:13:59;;;;;;;2.67;2.42;;;;;21.80;100939.00;;;;2040345;28;20633;-58
2023/08/10 01:15:05;;;;;;;3.08;2.30;;;;;21.80;100933.00;;;;2061687;28;20218;-57
2023/08/10 01:16:08;;;;;;;5.60;2.20;;;;;21.80;100939.00;;;;2059601;28;20224;-59
2023/08/10 01:17:40;;;;;;;3.45;2.28;;;;;21.80;100939.00;;;;2063481;28;20214;-59
2023/08/10 01:18:40;;;;;;;2.78;2.17;;;;;21.80;100939.00;;;;2062814;28;20225;-58
2023/08/10 01:19:41;;;;;;;4.07;2.53;;;;;21.80;100954.00;;;;2071540;28;20222;-58
2023/08/10 01:20:43;;;;;;;2.43;2.13;;;;;21.80;100947.00;;;;2065970;28;20214;-58
2023/08/10 01:21:49;;;;;;;2.60;2.40;;;;;21.80;100947.00;;;;2045879;28;20216;-58
2023/08/10 01:23:01;;;;;;;2.97;2.35;;;;;21.80;100944.00;;;;2054495;28;20711;-59
2023/08/10 01:24:10;;;;;;;4.60;2.63;;;;;21.80;100949.00;;;;2061424;28;20226;-59
2023/08/10 01:25:10;;;;;;;3.47;2.60;;;;;21.80;100933.00;;;;2061843;28;20305;-58
2023/08/10 01:26:11;;;;;;;2.43;2.23;;;;;21.80;100949.00;;;;2049655;28;20230;-58
2023/08/10 01:27:12;;;;;;;3.10;2.10;;;;;21.80;100953.00;;;;2063547;28;20217;-58
2023/08/10 01:28:12;;;;;;;5.50;2.30;;;;;21.50;100945.00;;;;2066223;28;20991;-59
2023/08/10 01:29:15;;;;;;;2.67;2.20;;;;;21.80;100950.00;;;;2065988;28;20218;-58
2023/08/10 01:30:15;;;;;;;3.00;2.53;;;;;21.80;100941.00;;;;2062913;28;20223;-58
2023/08/10 01:31:16;;;;;;;3.83;1.83;;;;;21.80;100953.00;;;;2066029;28;20206;-58
2023/08/10 01:32:16;;;;;;;2.10;1.60;;;;;21.80;100954.00;;;;2059210;28;20219;-59
2023/08/10 01:33:18;;;;;;;3.50;1.93;;;;;21.80;100951.00;;;;2072961;28;20348;-58
2023/08/10 01:34:18;;;;;;;2.47;2.15;;;;;21.80;100952.00;;;;2073518;28;20221;-59
2023/08/10 01:35:19;;;;;;;2.50;2.07;;;;;21.80;100956.00;;;;2071004;28;20258;-59
2023/08/10 01:36:19;;;;;;;2.60;2.00;;;;;21.80;100959.00;;;;2061708;28;20216;-59
2023/08/10 01:37:19;;;;;;;2.60;2.00;;;;;21.80;100958.00;;;;2071262;28;20267;-57
2023/08/10 01:38:20;;;;;;;2.23;2.00;;;;;21.80;100965.00;;;;2072140;28;20205;-57
2023/08/10 01:39:20;;;;;;;2.10;1.90;;;;;21.80;100965.00;;;;2064287;28;20300;-59
2023/08/10 01:40:21;;;;;;;3.13;2.10;;;;;21.80;100966.00;;;;2071802;28;20228;-60
2023/08/10 01:41:21;;;;;;;2.17;1.90;;;;;21.80;100973.00;;;;2064524;28;20217;-58
2023/08/10 01:42:22;;;;;;;3.40;1.80;;;;;21.80;100980.00;;;;2075474;28;20296;-57
2023/08/10 01:43:23;;;;;;;3.70;2.05;;;;;21.80;100970.00;;;;2070986;28;20209;-59
2023/08/10 01:44:23;;;;;;;2.20;2.00;;;;;21.80;100973.00;;;;2072343;28;20243;-59
2023/08/10 01:45:23;;;;;;;2.07;1.67;;;;;21.80;100968.00;;;;2071221;28;20737;-59
2023/08/10 01:46:25;;;;;;;2.80;1.73;;;;;21.80;100979.00;;;;2065372;28;20655;-58
2023/08/10 01:47:32;;;;;;;5.57;1.90;;;;;21.80;100975.00;;;;2065646;28;20206;-58
2023/08/10 01:48:33;;;;;;;3.05;1.73;;;;;21.80;100954.00;;;;2071194;28;20256;-57
2023/08/10 01:49:34;;;;;;;7.03;1.98;;;;;21.80;100952.00;;;;2064193;28;20234;-59
2023/08/10 01:50:36;;;;;;;2.90;1.77;;;;;21.70;100972.00;;;;2059787;28;20218;-59
2023/08/10 01:51:38;;;;;;;2.30;1.90;;;;;21.80;100976.00;;;;2060654;28;20236;-58
2023/08/10 01:52:42;;;;;;;2.40;2.00;;;;;21.80;100973.00;;;;2063877;28;20946;-59
2023/08/10 01:53:42;;;;;;;2.88;1.90;;;;;21.80;100982.00;;;;2076253;28;20217;-58
2023/08/10 01:54:43;;;;;;;4.20;2.00;;;;;21.80;100972.00;;;;2066728;28;20272;-58
2023/08/10 01:55:43;;;;;;;4.60;1.90;;;;;21.80;100979.00;;;;2058820;28;20687;-58
2023/08/10 01:56:43;;;;;;;2.80;2.00;;;;;21.70;100981.00;;;;2064085;28;20217;-58
2023/08/10 01:57:44;;;;;;;5.37;2.07;;;;;21.70;100967.00;;;;2063054;28;20949;-59
2023/08/10 01:58:45;;;;;;;3.10;1.70;;;;;21.70;100966.00;;;;2071802;28;20736;-62
2023/08/10 01:59:45;;;;;;;5.20;1.90;;;;;21.70;100951.00;;;;2079822;28;20526;-60
2023/08/10 02:00:46;;;;;;;2.40;1.90;;;;;21.80;100967.00;;;;2064090;28;20454;-60
2023/08/10 02:01:46;;;;;;;1.93;1.47;;;;;21.80;100978.00;;;;2063562;28;20209;-58
2023/08/10 02:02:47;;;;;;;2.77;1.93;;;;;21.80;100983.00;;;;2062593;28;20596;-61
2023/08/10 02:03:47;;;;;;;4.87;1.80;;;;;21.70;100990.00;;;;2066240;28;20218;-60
2023/08/10 02:04:47;;;;;;;4.53;2.43;;;;;21.80;100985.00;;;;2067752;28;20299;-59
2023/08/10 02:05:48;;;;;;;2.27;2.07;;;;;21.80;100987.00;;;;2067653;28;20218;-62
2023/08/10 02:06:48;;;;;;;2.47;2.27;;;;;21.80;100989.00;;;;2063591;28;20209;-60
2023/08/10 02:07:49;;;;;;;2.00;1.60;;;;;21.80;100986.00;;;;2070259;28;20225;-60
2023/08/10 02:08:49;;;;;;;2.40;1.70;;;;;21.70;100988.00;;;;2068504;28;20234;-61
2023/08/10 02:09:49;;;;;;;1.90;1.70;;;;;21.80;100985.00;;;;2073908;28;20275;-59
2023/08/10 02:10:50;;;;;;;2.63;1.80;;;;;21.70;100989.00;;;;2077057;28;20210;-60
2023/08/10 02:11:50;;;;;;;4.80;1.97;;;;;21.70;100991.00;;;;2064093;28;20296;-59
2023/08/10 02:12:51;;;;;;;4.00;1.60;;;;;21.70;100987.00;;;;2076037;28;20221;-59
2023/08/10 02:13:51;;;;;;;3.53;1.87;;;;;21.70;100855.00;;;;2071602;28;20292;-58
2023/08/10 02:14:51;;;;;;;2.43;1.90;;;;;21.70;100990.00;;;;2071526;28;20638;-58
2023/08/10 02:15:52;;;;;;;2.10;1.67;;;;;21.70;100986.00;;;;2075571;28;20217;-60
2023/08/10 02:16:52;;;;;;;2.40;1.40;;;;;21.70;101007.00;;;;2062832;28;20214;-59
2023/08/10 02:17:53;;;;;;;2.70;1.90;;;;;21.70;100987.00;;;;2068404;28;20709;-59
2023/08/10 02:18:53;;;;;;;2.27;1.63;;;;;21.70;100991.00;;;;2063300;28;20729;-58
2023/08/10 02:19:53;;;;;;;2.13;1.40;;;;;21.70;100994.00;;;;2069078;28;20229;-59
2023/08/10 02:20:54;;;;;;;2.60;1.70;;;;;21.70;100989.00;;;;2075237;28;20233;-59
2023/08/10 02:21:54;;;;;;;3.10;1.73;;;;;21.70;100984.00;;;;2062222;28;20218;-59
2023/08/10 02:22:54;;;;;;;2.10;1.60;;;;;21.70;100992.00;;;;2084108;28;20216;-59
2023/08/10 02:23:55;;;;;;;2.90;1.60;;;;;21.70;100990.00;;;;2072328;28;20728;-58
2023/08/10 02:24:55;;;;;;;1.90;1.70;;;;;21.70;100983.00;;;;2072100;28;20694;-59
2023/08/10 02:25:55;;;;;;;2.23;1.53;;;;;21.70;100985.00;;;;2070070;28;20230;-59
2023/08/10 02:26:56;;;;;;;1.87;1.63;;;;;21.30;100985.00;;;;2061351;28;20230;-58
2023/08/10 02:27:56;;;;;;;3.90;2.10;;;;;21.70;100991.00;;;;2075394;28;20681;-59
2023/08/10 02:28:57;;;;;;;3.03;1.70;;;;;21.70;100988.00;;;;2075511;28;20214;-59
2023/08/10 02:29:57;;;;;;;1.90;1.30;;;;;21.70;100989.00;;;;2068659;28;20276;-59
2023/08/10 02:30:58;;;;;;;2.67;1.80;;;;;21.70;100983.00;;;;2071321;28;20569;-60
2023/08/10 02:32:00;;;;;;;1.60;1.50;;;;;21.70;100985.00;;;;2058701;28;20241;-56
2023/08/10 02:33:00;;;;;;;2.10;1.50;;;;;21.70;100985.00;;;;2063964;28;20214;-57
2023/08/10 02:34:01;;;;;;;2.67;1.70;;;;;21.70;101037.00;;;;2076366;28;21150;-57
2023/08/10 02:35:04;;;;;;;2.30;1.70;;;;;21.70;100986.00;;;;2070398;28;20628;-57
2023/08/10 02:36:04;;;;;;;2.72;1.85;;;;;21.70;100985.00;;;;2053302;28;20226;-58
2023/08/10 02:37:05;;;;;;;1.63;1.40;;;;;21.70;100988.00;;;;2066411;28;20225;-61
2023/08/10 02:38:05;;;;;;;3.47;1.93;;;;;21.70;100976.00;;;;2072956;28;20210;-60
2023/08/10 02:39:05;;;;;;;2.13;1.60;;;;;21.70;100984.00;;;;2076253;28;20213;-59
2023/08/10 02:40:15;;;;;;;1.97;1.33;;;;;21.70;100981.00;;;;2069966;28;20217;-60
2023/08/10 02:41:16;;;;;;;2.40;1.60;;;;;21.70;100976.00;;;;2060689;28;20214;-58
2023/08/10 02:42:16;;;;;;;2.40;1.90;;;;;21.70;100978.00;;;;2074155;28;20225;-58
2023/08/10 02:43:18;;;;;;;2.30;1.70;;;;;21.50;100977.00;;;;2071339;28;21056;-59
2023/08/10 02:44:20;;;;;;;1.60;1.50;;;;;21.70;100974.00;;;;2074545;28;20213;-58
2023/08/10 02:45:20;;;;;;;1.70;1.60;;;;;21.70;100970.00;;;;2075167;28;20746;-57
2023/08/10 02:46:21;;;;;;;1.53;1.33;;;;;21.70;100971.00;;;;2073890;23;20248;-58
2023/08/10 02:47:21;;;;;;;1.97;1.40;;;;;21.70;100978.00;;;;2075673;28;20743;-56
2023/08/10 02:48:21;;;;;;;1.93;1.50;;;;;21.70;100975.00;;;;2076278;28;20228;-57
2023/08/10 02:49:22;;;;;;;2.60;1.60;;;;;21.70;100975.00;;;;2077920;28;20300;-58
2023/08/10 02:50:22;;;;;;;2.00;1.63;;;;;21.70;100974.00;;;;2080794;28;20319;-57
2023/08/10 02:51:22;;;;;;;1.70;1.30;;;;;21.70;100969.00;;;;2065784;28;20221;-64
2023/08/10 02:52:23;;;;;;;1.80;1.57;;;;;21.70;100975.00;;;;2073980;28;20220;-60
2023/08/10 02:53:23;;;;;;;2.73;1.70;;;;;21.70;100968.00;;;;2071734;28;20218;-61
2023/08/10 02:54:23;;;;;;;2.70;1.30;;;;;21.70;100968.00;;;;2072049;28;20312;-60
2023/08/10 02:55:24;;;;;;;2.10;1.60;;;;;21.70;100968.00;;;;2070758;28;20272;-57
2023/08/10 02:56:25;;;;;;;2.07;1.50;;;;;21.70;100964.00;;;;2059622;28;20225;-58
2023/08/10 02:57:25;;;;;;;2.00;1.70;;;;;21.70;100970.00;;;;2076268;28;20865;-59
2023/08/10 02:58:25;;;;;;;1.70;1.60;;;;;21.70;100974.00;;;;2076508;28;20212;-58
2023/08/10 02:59:26;;;;;;;5.20;1.60;;;;;21.70;100975.00;;;;2074848;28;20245;-58
2023/08/10 03:00:26;;;;;;;3.00;1.33;;;;;21.70;100967.00;;;;2073694;28;20214;-56
2023/08/10 03:01:26;;;;;;;1.70;1.50;;;;;21.70;100975.00;;;;2065462;28;20586;-58
2023/08/10 03:02:28;;;;;;;1.70;1.40;;;;;21.70;100977.00;;;;2071902;28;20221;-58
2023/08/10 03:03:28;;;;;;;2.00;1.25;;;;;21.70;100968.00;;;;2059921;28;20211;-56
2023/08/10 03:04:29;;;;;;;4.03;1.50;;;;;21.70;100976.00;;;;2075184;28;20315;-58
2023/08/10 03:05:29;;;;;;;1.93;1.43;;;;;21.70;100972.00;;;;2070783;28;20226;-59
2023/08/10 03:06:29;;;;;;;2.03;1.60;;;;;21.70;100972.00;;;;2063040;28;20271;-58
2023/08/10 03:07:30;;;;;;;3.17;1.70;;;;;21.70;100971.00;;;;2074644;28;20345;-58
2023/08/10 03:08:30;;;;;;;3.27;1.60;;;;;21.30;100974.00;;;;2072831;28;20767;-59
2023/08/10 03:09:31;;;;;;;2.50;1.73;;;;;21.70;100972.00;;;;2066581;28;20218;-58
2023/08/10 03:10:32;;;;;;;2.28;1.60;;;;;21.70;100974.00;;;;2070674;28;20218;-59
2023/08/10 03:11:32;;;;;;;2.00;1.53;;;;;21.70;100976.00;;;;2061172;28;20261;-59
2023/08/10 03:12:32;;;;;;;2.07;1.40;;;;;21.70;100974.00;;;;2068782;28;20218;-59
2023/08/10 03:13:33;;;;;;;2.57;1.70;;;;;21.70;100976.00;;;;2068954;28;20293;-58
2023/08/10 03:14:33;;;;;;;1.60;1.30;;;;;21.70;100971.00;;;;2068280;28;20217;-58
2023/08/10 03:15:33;;;;;;;4.23;1.50;;;;;21.70;100970.00;;;;2070599;28;20308;-57
2023/08/10 03:16:34;;;;;;;3.23;1.67;;;;;21.70;100975.00;;;;2068417;28;20681;-56
2023/08/10 03:17:35;;;;;;;1.80;1.25;;;;;21.70;100971.00;;;;2070177;28;21007;-59
2023/08/10 03:18:36;;;;;;;3.10;1.40;;;;;21.70;100973.00;;;;2061164;28;20226;-58
2023/08/10 03:19:36;;;;;;;3.07;1.80;;;;;21.70;100965.00;;;;2068679;28;20214;-59
2023/08/10 03:20:36;;;;;;;1.50;1.40;;;;;21.70;100962.00;;;;2074684;28;20302;-60
2023/08/10 03:21:37;;;;;;;3.00;1.70;;;;;21.70;100962.00;;;;2066268;28;20236;-58
2023/08/10 03:22:37;;;;;;;1.83;1.00;;;;;21.70;100963.00;;;;2072670;28;20220;-60
2023/08/10 03:23:37;;;;;;;2.50;1.73;;;;;21.70;100964.00;;;;2076370;28;20237;-57
2023/08/10 03:24:38;;;;;;;1.40;1.20;;;;;21.70;100964.00;;;;2074542;28;20213;-58
2023/08/10 03:25:38;;;;;;;4.83;1.50;;;;;21.70;100960.00;;;;2075182;28;20240;-58
2023/08/10 03:26:38;;;;;;;1.40;1.17;;;;;21.70;100964.00;;;;2064298;28;20300;-59
2023/08/10 03:27:39;;;;;;;3.10;1.40;;;;;21.70;100962.00;;;;2072858;28;20216;-59
2023/08/10 03:28:39;;;;;;;4.10;1.77;;;;;21.70;100968.00;;;;2077693;28;20213;-59
2023/08/10 03:29:40;;;;;;;2.13;1.30;;;;;21.70;100970.00;;;;2075785;28;20312;-59
2023/08/10 03:30:41;;;;;;;1.53;1.43;;;;;21.70;100961.00;;;;2074664;28;20224;-59
2023/08/10 03:31:41;;;;;;;4.17;1.53;;;;;21.70;100970.00;;;;2067861;28;20237;-60
2023/08/10 03:32:41;;;;;;;1.70;1.60;;;;;21.70;100974.00;;;;2070823;28;20229;-58
2023/08/10 03:33:42;;;;;;;2.30;1.30;;;;;21.70;101017.00;;;;2071562;28;20210;-59
2023/08/10 03:34:42;;;;;;;2.50;1.30;;;;;21.70;101008.00;;;;2072436;28;20573;-56
2023/08/10 03:35:42;;;;;;;2.20;1.40;;;;;21.70;100966.00;;;;2072216;28;20624;-57
2023/08/10 03:36:43;;;;;;;1.97;1.30;;;;;21.70;100968.00;;;;2063955;28;20688;-57
2023/08/10 03:37:43;;;;;;;2.60;1.50;;;;;21.70;100981.00;;;;2070218;28;20214;-58
2023/08/10 03:38:43;;;;;;;2.70;1.30;;;;;21.70;100971.00;;;;2077767;28;20205;-58
2023/08/10 03:39:44;;;;;;;4.63;1.50;;;;;21.70;100989.00;;;;2072837;28;20710;-59
2023/08/10 03:40:44;;;;;;;2.60;1.77;;;;;21.70;100984.00;;;;2069434;28;20698;-58
2023/08/10 03:41:44;;;;;;;1.70;1.30;;;;;21.70;100977.00;;;;2058967;28;20339;-57
2023/08/10 03:42:45;;;;;;;2.13;1.50;;;;;21.70;100977.00;;;;2071095;28;20210;-58
2023/08/10 03:43:45;;;;;;;2.90;1.50;;;;;21.70;100977.00;;;;2073251;28;20225;-58
2023/08/10 03:44:45;;;;;;;2.40;1.40;;;;;21.70;100987.00;;;;2075960;28;20271;-59
2023/08/10 03:45:46;;;;;;;2.47;1.40;;;;;21.70;100987.00;;;;2070608;28;20618;-59
2023/08/10 03:46:48;;;;;;;1.47;1.20;;;;;21.70;100895.00;;;;2065733;28;20265;-60
2023/08/10 03:47:48;;;;;;;2.17;1.35;;;;;21.70;100981.00;;;;2074626;28;20301;-60
2023/08/10 03:48:49;;;;;;;3.33;1.57;;;;;21.70;100987.00;;;;2076421;28;20628;-57
2023/08/10 03:49:49;;;;;;;2.13;1.30;;;;;21.70;100981.00;;;;2075584;28;20792;-58
2023/08/10 03:50:49;;;;;;;1.30;1.20;;;;;21.70;100982.00;;;;2072043;28;20594;-58
2023/08/10 03:51:51;;;;;;;2.17;1.57;;;;;21.70;100985.00;;;;2066893;28;20217;-60
2023/08/10 03:52:51;;;;;;;1.55;1.20;;;;;21.70;100981.00;;;;2071081;28;20687;-58
2023/08/10 03:53:51;;;;;;;2.47;1.50;;;;;21.70;100987.00;;;;2075694;28;20256;-58
2023/08/10 03:54:52;;;;;;;1.67;1.20;;;;;21.70;100987.00;;;;2068136;28;20254;-59
2023/08/10 03:55:52;;;;;;;2.43;1.50;;;;;21.70;100996.00;;;;2066615;28;20221;-59
2023/08/10 03:56:53;;;;;;;1.57;1.37;;;;;21.70;100997.00;;;;2052114;28;20222;-56
2023/08/10 03:57:53;;;;;;;2.73;1.50;;;;;21.70;100996.00;;;;2075218;28;20217;-58
2023/08/10 03:58:53;;;;;;;2.20;1.50;;;;;21.70;100997.00;;;;2075274;28;20271;-58
2023/08/10 03:59:54;;;;;;;1.77;1.20;;;;;21.70;100995.00;;;;2074469;28;20626;-58
2023/08/10 04:00:54;;;;;;;2.60;1.80;;;;;21.70;100996.00;;;;2073468;28;20214;-59
2023/08/10 04:01:55;;;;;;;1.87;1.43;;;;;21.70;101001.00;;;;2064850;28;20214;-58
2023/08/10 04:02:55;;;;;;;2.50;1.60;;;;;21.70;101000.00;;;;2071841;28;20240;-59
2023/08/10 04:03:55;;;;;;;2.37;1.17;;;;;21.70;101005.00;;;;2072861;28;20262;-60
2023/08/10 04:04:56;;;;;;;1.60;1.50;;;;;21.70;101010.00;;;;2073584;28;20229;-58
2023/08/10 04:05:56;;;;;;;2.30;1.50;;;;;21.70;101004.00;;;;2070006;28;20631;-59
2023/08/10 04:06:56;;;;;;;2.80;1.23;;;;;21.70;101005.00;;;;2064564;28;20296;-59
2023/08/10 04:07:57;;;;;;;2.60;1.57;;;;;21.70;101004.00;;;;2076281;28;20299;-60
2023/08/10 04:08:57;;;;;;;2.23;1.00;;;;;21.70;101004.00;;;;2075238;28;20221;-59
2023/08/10 04:09:57;;;;;;;1.67;1.40;;;;;21.70;101004.00;;;;2075781;28;20248;-59
2023/08/10 04:10:58;;;;;;;1.63;1.40;;;;;21.70;101005.00;;;;2069274;28;20248;-58
2023/08/10 04:11:58;;;;;;;2.00;1.10;;;;;21.60;100999.00;;;;2059595;28;20226;-57
2023/08/10 04:12:58;;;;;;;2.47;1.40;;;;;21.70;101004.00;;;;2069125;28;20214;-57
2023/08/10 04:13:59;;;;;;;2.00;1.50;;;;;21.70;101008.00;;;;2070736;28;20217;-59
2023/08/10 04:14:59;;;;;;;1.70;1.23;;;;;21.70;101002.00;;;;2074207;28;20297;-59
2023/08/10 04:15:59;;;;;;;1.57;1.23;;;;;21.70;101008.00;;;;2068341;28;20225;-59
2023/08/10 04:17:00;;;;;;;1.63;1.30;;;;;21.70;101009.00;;;;2060934;28;20284;-59
2023/08/10 04:18:00;;;;;;;2.30;1.53;;;;;21.70;101011.00;;;;2076600;28;20220;-59
2023/08/10 04:19:00;;;;;;;1.70;1.43;;;;;21.70;101017.00;;;;2075867;28;20301;-57
2023/08/10 04:20:01;;;;;;;3.60;1.63;;;;;21.70;101017.00;;;;2076738;28;20721;-59
2023/08/10 04:21:01;;;;;;;1.20;1.10;;;;;21.70;101013.00;;;;2066698;28;20681;-59
2023/08/10 04:22:01;;;;;;;1.70;1.30;;;;;21.70;101015.00;;;;2059958;28;20230;-60
2023/08/10 04:23:02;;;;;;;1.83;1.50;;;;;21.70;100900.00;;;;2076584;28;20414;-58
2023/08/10 04:24:02;;;;;;;1.63;1.13;;;;;21.70;101018.00;;;;2075768;28;20275;-56
2023/08/10 04:25:04;;;;;;;1.50;1.30;;;;;21.70;101017.00;;;;2072118;28;20873;-56
2023/08/10 04:26:04;;;;;;;2.40;1.70;;;;;21.70;101030.00;;;;2072830;28;20666;-63
2023/08/10 04:27:05;;;;;;;1.37;1.20;;;;;21.70;101024.00;;;;2063276;28;20210;-59
2023/08/10 04:28:05;;;;;;;1.70;1.40;;;;;21.70;101017.00;;;;2068630;28;20236;-61
2023/08/10 04:29:06;;;;;;;2.37;1.30;;;;;21.70;101025.00;;;;2074135;28;20248;-56
2023/08/10 04:30:08;;;;;;;1.90;1.07;;;;;21.60;101031.00;;;;2071254;28;20228;-57
2023/08/10 04:31:09;;;;;;;2.67;1.30;;;;;21.70;101029.00;;;;2062508;28;20217;-60
2023/08/10 04:32:09;;;;;;;2.30;1.30;;;;;21.60;101028.00;;;;2076440;28;20308;-57
2023/08/10 04:33:09;;;;;;;2.77;1.50;;;;;21.60;101024.00;;;;2082593;28;20212;-58
2023/08/10 04:34:10;;;;;;;1.90;1.43;;;;;21.60;101026.00;;;;2076456;28;20209;-59
2023/08/10 04:35:11;;;;;;;1.57;1.20;;;;;21.60;101024.00;;;;2069527;28;20210;-59
2023/08/10 04:36:11;;;;;;;2.35;1.40;;;;;21.60;101024.00;;;;2060435;28;20206;-57
2023/08/10 04:37:12;;;;;;;3.97;1.40;;;;;21.60;101028.00;;;;2075835;28;20217;-57
2023/08/10 04:38:12;;;;;;;1.80;1.20;;;;;21.60;101028.00;;;;2073980;28;20225;-57
2023/08/10 04:39:13;;;;;;;2.20;1.47;;;;;21.60;101027.00;;;;2077037;28;20225;-57
2023/08/10 04:40:13;;;;;;;1.67;1.03;;;;;21.70;101041.00;;;;2071736;28;20294;-58
2023/08/10 04:41:13;;;;;;;3.27;1.60;;;;;21.60;101051.00;;;;2067373;28;20232;-57
2023/08/10 04:42:14;;;;;;;1.80;1.43;;;;;21.60;101037.00;;;;2083909;28;20769;-58
2023/08/10 04:43:14;;;;;;;3.17;1.50;;;;;21.70;101031.00;;;;2080661;28;20684;-58
2023/08/10 04:44:15;;;;;;;1.93;1.70;;;;;21.70;101029.00;;;;2068731;28;20214;-60
2023/08/10 04:45:15;;;;;;;2.20;1.53;;;;;21.60;101026.00;;;;2072455;28;20296;-59
2023/08/10 04:46:15;;;;;;;2.03;1.40;;;;;21.60;101031.00;;;;2061485;28;20241;-57
2023/08/10 04:47:16;;;;;;;2.03;1.40;;;;;21.60;101028.00;;;;2082459;28;20213;-57
2023/08/10 04:48:16;;;;;;;1.93;1.13;;;;;21.60;101025.00;;;;2081803;28;20304;-58
2023/08/10 04:49:16;;;;;;;3.40;1.37;;;;;21.70;101029.00;;;;2069832;28;20220;-58
2023/08/10 04:50:17;;;;;;;1.97;1.50;;;;;21.70;101028.00;;;;2074558;28;20218;-59
2023/08/10 04:51:17;;;;;;;2.10;1.60;;;;;21.60;101035.00;;;;2059785;28;20297;-57
2023/08/10 04:52:17;;;;;;;1.60;1.50;;;;;21.60;101031.00;;;;2078526;28;20213;-58
2023/08/10 04:53:18;;;;;;;1.73;1.53;;;;;21.60;101038.00;;;;2076552;28;20256;-60
2023/08/10 04:54:18;;;;;;;2.00;1.80;;;;;21.60;101034.00;;;;2074227;28;20224;-59
2023/08/10 04:55:19;;;;;;;1.93;1.50;;;;;21.60;101039.00;;;;2066796;28;20265;-57
2023/08/10 04:56:19;;;;;;;3.03;1.67;;;;;21.60;101035.00;;;;2054837;28;20221;-58
2023/08/10 04:57:19;;;;;;;3.10;1.47;;;;;21.60;101040.00;;;;2075872;28;20225;-60
2023/08/10 04:58:19;;;;;;;2.30;1.40;;;;;21.60;101039.00;;;;2074271;28;20252;-58
2023/08/10 04:59:20;;;;;;;1.97;1.77;;;;;21.60;101037.00;;;;2070102;28;20233;-58
2023/08/10 05:00:23;;;;;;;3.30;1.77;;;;;21.70;101034.00;;;;2070252;28;20222;-57
2023/08/10 05:01:23;;;;;;;2.00;1.73;;;;;21.60;101036.00;;;;2064227;28;20217;-58
2023/08/10 05:02:24;;;;;;;2.37;1.60;;;;;21.60;101040.00;;;;2080473;28;20209;-59